<?xml version='1.0' encoding='UTF-8'?><gpx version="1.1" creator="JPX - https://github.com/jenetics/jpx" xmlns="http://www.topografix.com/GPX/1/1"><trk><trkseg><trkpt lat="43.90014" lon="12.4158117"><ele>500.0</ele><time>2026-04-12T06:32:22.894Z</time></trkpt><trkpt lat="43.90017" lon="12.4156467"><ele>500.0</ele><time>2026-04-12T06:32:27.394Z</time></trkpt><trkpt lat="43.9001183" lon="12.4155767"><ele>500.0</ele><time>2026-04-12T06:32:29.395Z</time></trkpt><trkpt lat="43.9000433" lon="12.415545"><ele>500.0</ele><time>2026-04-12T06:32:32.394Z</time></trkpt><trkpt lat="43.899975" lon="12.4155233"><ele>500.0</ele><time>2026-04-12T06:32:36.395Z</time></trkpt><trkpt lat="43.8999" lon="12.4156533"><ele>501.0</ele><time>2026-04-12T06:33:12.394Z</time></trkpt><trkpt lat="43.8998267" lon="12.4158717"><ele>502.0</ele><time>2026-04-12T06:33:14.394Z</time></trkpt><trkpt lat="43.8997867" lon="12.4159767"><ele>503.0</ele><time>2026-04-12T06:33:15.395Z</time></trkpt><trkpt lat="43.899745" lon="12.4160733"><ele>504.0</ele><time>2026-04-12T06:33:16.395Z</time></trkpt><trkpt lat="43.8996983" lon="12.4161583"><ele>505.0</ele><time>2026-04-12T06:33:17.395Z</time></trkpt><trkpt lat="43.8996417" lon="12.41624"><ele>505.6666666666667</ele><time>2026-04-12T06:33:18.395Z</time></trkpt><trkpt lat="43.8995867" lon="12.41632"><ele>506.33333333333337</ele><time>2026-04-12T06:33:19.394Z</time></trkpt><trkpt lat="43.8995333" lon="12.416385"><ele>507.0</ele><time>2026-04-12T06:33:20.395Z</time></trkpt><trkpt lat="43.8994817" lon="12.416445"><ele>507.66666666666663</ele><time>2026-04-12T06:33:21.394Z</time></trkpt><trkpt lat="43.8994233" lon="12.4165133"><ele>508.3333333333333</ele><time>2026-04-12T06:33:22.394Z</time></trkpt><trkpt lat="43.8993567" lon="12.4165767"><ele>509.0</ele><time>2026-04-12T06:33:23.395Z</time></trkpt><trkpt lat="43.8992867" lon="12.4166283"><ele>509.0</ele><time>2026-04-12T06:33:24.395Z</time></trkpt><trkpt lat="43.899215" lon="12.416685"><ele>509.0</ele><time>2026-04-12T06:33:25.394Z</time></trkpt><trkpt lat="43.899125" lon="12.4167567"><ele>509.0</ele><time>2026-04-12T06:33:26.394Z</time></trkpt><trkpt lat="43.8990333" lon="12.4168367"><ele>509.0</ele><time>2026-04-12T06:33:27.394Z</time></trkpt><trkpt lat="43.8989467" lon="12.41693"><ele>509.0</ele><time>2026-04-12T06:33:28.394Z</time></trkpt><trkpt lat="43.89886" lon="12.4170367"><ele>509.0</ele><time>2026-04-12T06:33:29.394Z</time></trkpt><trkpt lat="43.8987783" lon="12.41714"><ele>509.0</ele><time>2026-04-12T06:33:30.395Z</time></trkpt><trkpt lat="43.8986983" lon="12.4172383"><ele>509.0</ele><time>2026-04-12T06:33:31.395Z</time></trkpt><trkpt lat="43.8986233" lon="12.417335"><ele>509.0</ele><time>2026-04-12T06:33:32.395Z</time></trkpt><trkpt lat="43.8985517" lon="12.417425"><ele>509.0</ele><time>2026-04-12T06:33:33.394Z</time></trkpt><trkpt lat="43.8983717" lon="12.4175883"><ele>510.75</ele><time>2026-04-12T06:33:35.395Z</time></trkpt><trkpt lat="43.8982617" lon="12.4176583"><ele>512.5</ele><time>2026-04-12T06:33:36.395Z</time></trkpt><trkpt lat="43.8981483" lon="12.4177117"><ele>514.25</ele><time>2026-04-12T06:33:37.395Z</time></trkpt><trkpt lat="43.898035" lon="12.4177617"><ele>516.0</ele><time>2026-04-12T06:33:38.394Z</time></trkpt><trkpt lat="43.89793" lon="12.41781"><ele>516.0</ele><time>2026-04-12T06:33:39.394Z</time></trkpt><trkpt lat="43.897825" lon="12.41786"><ele>516.0</ele><time>2026-04-12T06:33:40.394Z</time></trkpt><trkpt lat="43.8977133" lon="12.4179167"><ele>516.0</ele><time>2026-04-12T06:33:41.394Z</time></trkpt><trkpt lat="43.8976033" lon="12.4179917"><ele>516.0</ele><time>2026-04-12T06:33:42.394Z</time></trkpt><trkpt lat="43.8974933" lon="12.418055"><ele>517.4</ele><time>2026-04-12T06:33:43.394Z</time></trkpt><trkpt lat="43.897395" lon="12.4181217"><ele>518.8</ele><time>2026-04-12T06:33:44.394Z</time></trkpt><trkpt lat="43.8972983" lon="12.4181783"><ele>520.1999999999999</ele><time>2026-04-12T06:33:45.394Z</time></trkpt><trkpt lat="43.8972033" lon="12.4182283"><ele>521.6</ele><time>2026-04-12T06:33:46.395Z</time></trkpt><trkpt lat="43.8971217" lon="12.418275"><ele>523.0</ele><time>2026-04-12T06:33:47.395Z</time></trkpt><trkpt lat="43.89705" lon="12.41831"><ele>523.0</ele><time>2026-04-12T06:33:48.395Z</time></trkpt><trkpt lat="43.8969833" lon="12.4183383"><ele>523.0</ele><time>2026-04-12T06:33:49.394Z</time></trkpt><trkpt lat="43.89689" lon="12.4183667"><ele>523.0</ele><time>2026-04-12T06:33:51.394Z</time></trkpt><trkpt lat="43.8968067" lon="12.4183567"><ele>523.0</ele><time>2026-04-12T06:34:17.394Z</time></trkpt><trkpt lat="43.8969333" lon="12.4183983"><ele>523.0</ele><time>2026-04-12T06:34:22.395Z</time></trkpt><trkpt lat="43.897035" lon="12.4183317"><ele>523.0</ele><time>2026-04-12T06:34:23.394Z</time></trkpt><trkpt lat="43.8971517" lon="12.4182633"><ele>523.0</ele><time>2026-04-12T06:34:24.395Z</time></trkpt><trkpt lat="43.8972867" lon="12.4181967"><ele>523.0</ele><time>2026-04-12T06:34:25.394Z</time></trkpt><trkpt lat="43.8974233" lon="12.4181167"><ele>523.0</ele><time>2026-04-12T06:34:26.394Z</time></trkpt><trkpt lat="43.8975583" lon="12.4180233"><ele>521.25</ele><time>2026-04-12T06:34:27.395Z</time></trkpt><trkpt lat="43.8976933" lon="12.4179267"><ele>519.5</ele><time>2026-04-12T06:34:28.395Z</time></trkpt><trkpt lat="43.89783" lon="12.4178583"><ele>517.75</ele><time>2026-04-12T06:34:29.394Z</time></trkpt><trkpt lat="43.89796" lon="12.4178017"><ele>516.0</ele><time>2026-04-12T06:34:30.395Z</time></trkpt><trkpt lat="43.8980933" lon="12.4177483"><ele>516.0</ele><time>2026-04-12T06:34:31.395Z</time></trkpt><trkpt lat="43.8982283" lon="12.4176883"><ele>516.0</ele><time>2026-04-12T06:34:32.395Z</time></trkpt><trkpt lat="43.898345" lon="12.4176167"><ele>516.0</ele><time>2026-04-12T06:34:33.395Z</time></trkpt><trkpt lat="43.8984533" lon="12.41754"><ele>516.0</ele><time>2026-04-12T06:34:34.394Z</time></trkpt><trkpt lat="43.8985517" lon="12.4174433"><ele>516.25</ele><time>2026-04-12T06:34:35.394Z</time></trkpt><trkpt lat="43.89865" lon="12.4173317"><ele>516.5</ele><time>2026-04-12T06:34:36.395Z</time></trkpt><trkpt lat="43.8987467" lon="12.417205"><ele>516.75</ele><time>2026-04-12T06:34:37.394Z</time></trkpt><trkpt lat="43.898845" lon="12.41708"><ele>517.0</ele><time>2026-04-12T06:34:38.394Z</time></trkpt><trkpt lat="43.8990517" lon="12.416835"><ele>515.0</ele><time>2026-04-12T06:34:40.394Z</time></trkpt><trkpt lat="43.8991717" lon="12.41673"><ele>513.0</ele><time>2026-04-12T06:34:41.395Z</time></trkpt><trkpt lat="43.899295" lon="12.41664"><ele>511.0</ele><time>2026-04-12T06:34:42.394Z</time></trkpt><trkpt lat="43.8994133" lon="12.416545"><ele>509.0</ele><time>2026-04-12T06:34:43.394Z</time></trkpt><trkpt lat="43.8995233" lon="12.41643"><ele>508.0</ele><time>2026-04-12T06:34:44.394Z</time></trkpt><trkpt lat="43.899615" lon="12.4163"><ele>507.0</ele><time>2026-04-12T06:34:45.394Z</time></trkpt><trkpt lat="43.8996933" lon="12.4161633"><ele>506.0</ele><time>2026-04-12T06:34:46.394Z</time></trkpt><trkpt lat="43.8997583" lon="12.4160183"><ele>505.0</ele><time>2026-04-12T06:34:47.395Z</time></trkpt><trkpt lat="43.89981" lon="12.415885"><ele>505.0</ele><time>2026-04-12T06:34:48.395Z</time></trkpt><trkpt lat="43.8998517" lon="12.4157733"><ele>505.0</ele><time>2026-04-12T06:34:49.394Z</time></trkpt><trkpt lat="43.8998817" lon="12.415675"><ele>505.0</ele><time>2026-04-12T06:34:50.395Z</time></trkpt><trkpt lat="43.8999433" lon="12.4155533"><ele>505.0</ele><time>2026-04-12T06:34:52.394Z</time></trkpt><trkpt lat="43.9000283" lon="12.4155217"><ele>505.0</ele><time>2026-04-12T06:34:54.394Z</time></trkpt><trkpt lat="43.9001267" lon="12.415555"><ele>500.0</ele><time>2026-04-12T06:34:56.394Z</time></trkpt><trkpt lat="43.90019" lon="12.4156683"><ele>500.0</ele><time>2026-04-12T06:34:58.394Z</time></trkpt><trkpt lat="43.9001033" lon="12.4157333"><ele>500.0</ele><time>2026-04-12T06:35:01.394Z</time></trkpt></trkseg></trk></gpx>